Time;durP1;ratioP1;P1;durP2;ratioP2;P2;SDS_P1;SDS_P2;PMS_P1;PMS_P2;Temp;Humidity;BMP_temperature;BMP_pressure;BME280_temperature;BME280_humidity;BME280_pressure;Samples;Min_cycle;Max_cycle;Signal;HPM_P1;HPM_P2
2023/06/26 00:01:42;;;;;;;5.72;2.70;;;29.90;58.40;;;;;;10489328;28;20132;-32
2023/06/26 00:06:44;;;;;;;7.72;2.63;;;30.50;58.20;;;;;;10492810;28;20048;-32
2023/06/26 00:11:47;;;;;;;6.18;2.83;;;29.50;56.90;;;;;;10491872;28;20056;-33
2023/06/26 00:16:49;;;;;;;8.93;3.35;;;29.10;62.60;;;;;;10491361;28;20503;-31
2023/06/26 00:21:51;;;;;;;3.40;2.50;;;29.00;64.40;;;;;;10491810;28;20045;-38
2023/06/26 00:26:55;;;;;;;4.13;2.15;;;30.00;63.00;;;;;;10492582;28;20123;-32
2023/06/26 00:31:57;;;;;;;9.98;3.20;;;30.60;55.60;;;;;;10493908;28;20544;-33
2023/06/26 00:36:59;;;;;;;11.35;3.67;;;28.50;60.50;;;;;;10483572;28;20109;-33
2023/06/26 00:42:03;;;;;;;14.13;3.15;;;27.20;67.00;;;;;;10492824;28;20044;-33
2023/06/26 00:47:05;;;;;;;13.98;3.72;;;29.60;57.40;;;;;;10488897;28;20076;-33
2023/06/26 00:52:07;;;;;;;16.33;4.03;;;28.20;62.10;;;;;;10491480;28;20075;-34
2023/06/26 00:57:10;;;;;;;9.73;3.00;;;26.80;65.40;;;;;;10491061;28;20497;-33
2023/06/26 01:02:19;;;;;;;18.73;4.47;;;28.90;65.50;;;;;;10492175;28;20116;-33
2023/06/26 01:07:23;;;;;;;5.43;3.00;;;27.00;64.70;;;;;;10488324;28;20048;-32
2023/06/26 01:12:26;;;;;;;8.82;3.05;;;28.40;62.80;;;;;;10481543;28;20143;-31
2023/06/26 01:17:31;;;;;;;14.98;3.28;;;28.40;61.60;;;;;;10492540;28;20052;-34
2023/06/26 01:22:44;;;;;;;9.45;3.42;;;28.90;61.90;;;;;;10491760;28;20684;-38
2023/06/26 01:27:50;;;;;;;8.50;2.63;;;28.40;59.80;;;;;;10487342;28;20044;-39
2023/06/26 01:32:53;;;;;;;4.72;2.40;;;29.10;64.10;;;;;;10491788;28;20080;-36
2023/06/26 01:38:12;;;;;;;10.18;3.50;;;27.80;68.30;;;;;;10492577;28;20059;-31
2023/06/26 01:43:25;;;;;;;7.82;3.40;;;26.60;69.20;;;;;;10488259;28;20076;-34
2023/06/26 01:48:32;;;;;;;6.03;2.40;;;27.00;71.60;;;;;;10489545;28;20571;-33
2023/06/26 01:53:39;;;;;;;7.00;2.38;;;27.90;69.10;;;;;;10488814;28;20101;-33
2023/06/26 01:58:46;;;;;;;8.43;2.65;;;26.40;73.20;;;;;;10490688;28;20131;-33
2023/06/26 02:03:48;;;;;;;10.55;3.17;;;27.70;66.80;;;;;;10491227;28;20110;-34
2023/06/26 02:08:50;;;;;;;8.98;3.25;;;26.50;67.10;;;;;;10491535;28;20047;-31
2023/06/26 02:13:55;;;;;;;9.82;3.03;;;26.20;75.50;;;;;;10490698;28;20137;-31
2023/06/26 02:18:58;;;;;;;4.35;2.40;;;28.30;62.60;;;;;;10491696;28;20122;-31
2023/06/26 02:24:01;;;;;;;10.13;2.67;;;28.10;65.60;;;;;;10489444;28;20045;-32
2023/06/26 02:29:04;;;;;;;9.38;2.30;;;26.50;73.30;;;;;;10490941;28;20037;-38
2023/06/26 02:34:06;;;;;;;7.93;2.75;;;27.90;64.60;;;;;;10489297;28;20139;-37
2023/06/26 02:39:08;;;;;;;10.20;3.13;;;27.50;66.80;;;;;;10489840;28;20135;-32
2023/06/26 02:44:12;;;;;;;8.52;3.05;;;27.80;61.50;;;;;;10491399;28;20102;-33
2023/06/26 02:49:13;;;;;;;5.65;2.33;;;28.60;61.10;;;;;;10489955;28;20119;-33
2023/06/26 02:54:15;;;;;;;6.70;2.55;;;28.90;61.90;;;;;;10489991;28;20056;-34
2023/06/26 03:15:30;;;;;;;8.10;2.75;;;28.60;59.90;;;;;;10572230;27;20573;-35
2023/06/26 03:20:32;;;;;;;6.55;2.17;;;29.80;59.10;;;;;;10567875;28;20050;-33
2023/06/26 03:25:34;;;;;;;5.15;2.25;;;29.10;58.40;;;;;;10569867;28;20138;-34
2023/06/26 03:30:37;;;;;;;5.45;2.00;;;29.60;58.90;;;;;;10573461;28;20079;-35
2023/06/26 03:35:39;;;;;;;5.20;2.40;;;29.40;60.30;;;;;;10566960;28;20078;-32
2023/06/26 03:40:40;;;;;;;4.45;2.20;;;28.20;61.40;;;;;;10570601;28;20071;-33
2023/06/26 03:45:44;;;;;;;5.63;2.20;;;30.50;57.60;;;;;;10567106;28;20132;-33
2023/06/26 03:50:46;;;;;;;7.03;2.55;;;30.80;55.50;;;;;;10572969;28;20130;-32
2023/06/26 03:55:48;;;;;;;11.27;2.83;;;29.20;59.10;;;;;;10577455;28;20071;-31
2023/06/26 04:00:51;;;;;;;6.20;2.35;;;27.80;60.00;;;;;;10566515;28;20083;-31
2023/06/26 04:05:53;;;;;;;6.10;2.58;;;28.00;63.90;;;;;;10567691;28;20130;-31
2023/06/26 04:10:57;;;;;;;6.25;2.72;;;28.10;58.10;;;;;;10568903;28;20048;-31
2023/06/26 04:16:01;;;;;;;4.28;2.30;;;26.10;66.30;;;;;;10572187;28;20044;-32
2023/06/26 04:21:08;;;;;;;4.80;2.45;;;27.90;63.00;;;;;;10564780;28;20522;-33
2023/06/26 04:26:13;;;;;;;6.50;2.40;;;28.80;60.70;;;;;;10540529;28;20131;-30
2023/06/26 04:31:16;;;;;;;13.30;2.88;;;27.30;64.70;;;;;;10536195;28;20472;-31
2023/06/26 04:36:18;;;;;;;5.38;2.30;;;25.90;63.70;;;;;;10536707;28;20106;-31
2023/06/26 04:41:20;;;;;;;5.90;2.25;;;26.40;68.40;;;;;;10536955;28;20044;-33
2023/06/26 04:46:24;;;;;;;7.32;2.38;;;27.10;67.80;;;;;;10530878;28;20052;-34
2023/06/26 04:51:26;;;;;;;4.75;1.83;;;27.10;62.40;;;;;;10535224;28;20056;-32
2023/06/26 04:56:30;;;;;;;5.35;1.80;;;26.50;71.00;;;;;;10536223;28;20126;-31
2023/06/26 05:01:33;;;;;;;5.82;1.45;;;25.10;75.30;;;;;;10535040;28;20135;-33
2023/06/26 05:06:35;;;;;;;4.82;2.20;;;25.10;73.50;;;;;;10533455;28;20082;-32
2023/06/26 05:11:37;;;;;;;6.78;1.80;;;26.90;67.10;;;;;;10532037;28;20151;-33
2023/06/26 05:16:40;;;;;;;3.65;1.60;;;28.30;61.70;;;;;;10532835;28;20567;-31
2023/06/26 05:21:43;;;;;;;6.90;1.73;;;28.70;59.20;;;;;;10530656;28;20098;-32
2023/06/26 05:26:45;;;;;;;4.63;1.73;;;25.00;60.10;;;;;;10537174;28;20089;-31
2023/06/26 05:31:50;;;;;;;3.35;1.30;;;26.30;69.60;;;;;;10531053;28;20125;-34
2023/06/26 05:36:52;;;;;;;7.63;1.38;;;26.90;67.40;;;;;;10529710;28;20411;-34
2023/06/26 05:41:55;;;;;;;5.38;1.40;;;25.80;61.30;;;;;;10532441;28;20089;-33
2023/06/26 05:46:58;;;;;;;4.93;1.45;;;28.10;56.50;;;;;;10540249;28;20159;-36
2023/06/26 05:52:00;;;;;;;4.57;1.15;;;26.70;55.70;;;;;;10529893;28;20080;-32
2023/06/26 05:57:04;;;;;;;3.70;1.30;;;26.50;55.50;;;;;;10527876;28;20134;-34
2023/06/26 06:02:07;;;;;;;5.45;1.60;;;24.90;74.00;;;;;;10523702;28;20477;-36
2023/06/26 06:07:09;;;;;;;4.85;1.40;;;26.50;67.50;;;;;;10529867;28;20044;-35
2023/06/26 06:12:11;;;;;;;7.30;1.50;;;26.50;66.10;;;;;;10535006;28;20135;-31
2023/06/26 06:17:14;;;;;;;13.68;1.70;;;24.40;62.30;;;;;;10533913;28;20036;-33
2023/06/26 06:22:17;;;;;;;5.10;1.10;;;24.70;63.60;;;;;;10530751;28;20075;-31
2023/06/26 06:27:19;;;;;;;3.88;1.33;;;25.70;61.40;;;;;;10531721;28;20045;-31
2023/06/26 06:32:22;;;;;;;7.75;2.13;;;26.80;60.50;;;;;;10520315;28;20511;-30
2023/06/26 06:37:24;;;;;;;4.03;0.98;;;27.60;56.80;;;;;;10530890;28;20127;-32
2023/06/26 06:42:26;;;;;;;5.28;1.20;;;27.00;56.70;;;;;;10532144;28;20048;-34
2023/06/26 06:47:29;;;;;;;4.43;0.98;;;26.50;59.10;;;;;;10529635;28;20043;-36
2023/06/26 06:52:31;;;;;;;4.35;1.20;;;27.80;58.10;;;;;;10532972;28;20044;-37
2023/06/26 06:57:35;;;;;;;6.78;1.00;;;23.90;69.70;;;;;;10529287;28;20404;-38
2023/06/26 07:02:39;;;;;;;6.45;1.02;;;25.10;67.20;;;;;;10530374;28;20572;-35
2023/06/26 07:07:41;;;;;;;7.18;2.00;;;24.70;66.10;;;;;;10528665;28;20078;-32
2023/06/26 07:12:43;;;;;;;6.53;1.23;;;25.70;59.60;;;;;;10530268;28;20052;-34
2023/06/26 07:17:47;;;;;;;16.05;1.55;;;26.90;61.30;;;;;;10529583;28;20048;-34
2023/06/26 07:22:49;;;;;;;7.13;1.27;;;24.90;68.70;;;;;;10507842;28;20051;-32
2023/06/26 07:27:51;;;;;;;3.83;0.80;;;24.90;68.70;;;;;;10528170;28;20070;-31
2023/06/26 07:32:54;;;;;;;7.60;1.30;;;25.10;67.50;;;;;;10524202;28;20081;-35
2023/06/26 07:37:56;;;;;;;6.43;1.40;;;24.50;73.80;;;;;;10528929;28;20426;-32
2023/06/26 07:42:58;;;;;;;3.15;0.85;;;25.10;63.80;;;;;;10531539;28;20052;-31
2023/06/26 07:48:02;;;;;;;10.75;1.73;;;26.50;61.20;;;;;;10526993;28;20418;-31
2023/06/26 07:53:05;;;;;;;6.53;1.27;;;24.40;64.10;;;;;;10530358;28;20079;-34
2023/06/26 07:58:08;;;;;;;6.28;1.17;;;24.50;71.10;;;;;;10530670;28;20070;-35
2023/06/26 08:03:11;;;;;;;3.53;1.17;;;25.40;61.30;;;;;;10537114;28;20040;-35
2023/06/26 08:08:13;;;;;;;9.88;1.20;;;22.70;79.00;;;;;;10535067;28;20048;-33
2023/06/26 08:13:15;;;;;;;9.02;1.30;;;23.90;63.70;;;;;;10530225;28;20052;-32
2023/06/26 08:18:19;;;;;;;10.50;1.30;;;24.30;68.00;;;;;;10532205;28;20147;-33
2023/06/26 08:23:21;;;;;;;12.60;1.10;;;22.70;69.00;;;;;;10535810;28;20532;-31
2023/06/26 08:28:23;;;;;;;12.70;1.02;;;23.70;73.50;;;;;;10534722;28;20479;-33
2023/06/26 08:33:26;;;;;;;5.00;1.52;;;24.70;70.30;;;;;;10532678;28;20044;-33
2023/06/26 08:38:28;;;;;;;6.85;1.17;;;24.80;58.60;;;;;;10532882;28;20093;-31
2023/06/26 08:43:31;;;;;;;5.88;1.25;;;25.50;61.50;;;;;;10534641;28;20131;-32
2023/06/26 08:48:34;;;;;;;5.53;1.30;;;23.50;69.40;;;;;;10529102;28;20127;-32
2023/06/26 08:53:44;;;;;;;4.97;1.38;;;25.10;61.60;;;;;;10539198;28;20204;-34
2023/06/26 08:58:46;;;;;;;5.20;1.20;;;23.70;63.10;;;;;;10534112;28;20054;-34
2023/06/26 09:03:49;;;;;;;10.20;1.63;;;23.60;70.50;;;;;;10534710;28;20055;-34
2023/06/26 09:08:52;;;;;;;11.93;1.73;;;23.20;67.80;;;;;;10533925;28;20056;-31
2023/06/26 09:13:56;;;;;;;4.22;1.45;;;23.10;70.20;;;;;;10532431;28;20642;-31
2023/06/26 09:18:59;;;;;;;3.33;0.80;;;23.20;74.70;;;;;;10535377;28;20591;-31
2023/06/26 09:24:01;;;;;;;6.60;1.20;;;25.60;65.60;;;;;;10533185;28;20122;-29
2023/06/26 09:29:03;;;;;;;5.50;1.30;;;24.40;69.50;;;;;;10530687;28;20690;-31
2023/06/26 09:34:07;;;;;;;3.75;1.10;;;24.60;67.60;;;;;;10532092;28;20485;-31
2023/06/26 09:39:11;;;;;;;5.82;1.13;;;23.40;64.80;;;;;;10532713;28;20481;-31
2023/06/26 09:44:15;;;;;;;7.75;1.15;;;24.20;70.20;;;;;;10532455;28;20063;-32
2023/06/26 09:49:18;;;;;;;6.10;1.60;;;22.30;65.70;;;;;;10531243;28;20052;-31
2023/06/26 09:54:22;;;;;;;6.57;1.20;;;23.60;74.80;;;;;;10533512;28;20079;-33
2023/06/26 09:59:25;;;;;;;6.35;0.80;;;24.10;69.20;;;;;;10532199;28;20068;-32
2023/06/26 10:04:28;;;;;;;7.63;1.25;;;25.00;61.70;;;;;;10524872;28;20123;-31
2023/06/26 10:09:50;;;;;;;9.70;1.50;;;23.30;72.10;;;;;;10531113;28;20112;-35
2023/06/26 10:14:55;;;;;;;6.60;1.30;;;23.80;67.00;;;;;;10542420;28;20066;-33
2023/06/26 10:20:10;;;;;;;4.43;1.23;;;25.90;61.90;;;;;;10541901;28;20059;-33
2023/06/26 10:25:52;;;;;;;4.25;0.95;;;25.20;62.60;;;;;;10543439;28;20036;-33
2023/06/26 10:30:55;;;;;;;2.00;0.70;;;23.30;70.50;;;;;;10528124;28;20549;-34
2023/06/26 10:36:14;;;;;;;2.55;0.73;;;25.50;57.50;;;;;;10526291;28;20126;-33
2023/06/26 10:41:20;;;;;;;5.35;1.10;;;24.80;56.90;;;;;;10530294;28;20118;-36
2023/06/26 10:46:23;;;;;;;4.72;1.25;;;25.40;58.10;;;;;;10517265;28;20741;-31
2023/06/26 10:51:26;;;;;;;4.53;1.17;;;24.70;64.50;;;;;;10526666;28;20052;-30
2023/06/26 10:56:45;;;;;;;7.25;1.30;;;24.70;63.70;;;;;;10529047;28;20132;-32
2023/06/26 11:01:54;;;;;;;4.03;0.90;;;23.50;70.00;;;;;;10524288;28;20135;-34
2023/06/26 11:07:16;;;;;;;4.15;1.00;;;25.90;60.50;;;;;;10529932;28;20127;-31
2023/06/26 11:12:36;;;;;;;3.35;1.10;;;25.70;59.50;;;;;;10531680;28;20052;-35
2023/06/26 11:17:38;;;;;;;5.93;0.73;;;24.50;65.90;;;;;;10527868;28;20502;-40
2023/06/26 11:22:43;;;;;;;2.72;1.00;;;24.10;60.10;;;;;;10536388;28;20068;-37
2023/06/26 11:27:45;;;;;;;2.33;0.65;;;26.40;56.40;;;;;;10530684;28;20097;-34
2023/06/26 11:32:47;;;;;;;4.03;1.00;;;27.10;58.00;;;;;;10529697;28;20048;-31
2023/06/26 11:37:50;;;;;;;3.15;0.75;;;26.80;54.50;;;;;;10536444;28;20144;-32
2023/06/26 11:42:53;;;;;;;2.55;1.02;;;25.40;59.40;;;;;;10532388;28;20557;-32
2023/06/26 11:47:56;;;;;;;2.25;1.00;;;25.60;63.50;;;;;;10525974;28;20071;-32
2023/06/26 11:53:01;;;;;;;3.28;1.20;;;26.10;57.10;;;;;;10535323;28;20055;-32
2023/06/26 11:58:03;;;;;;;2.70;0.70;;;25.40;60.30;;;;;;10534089;28;20067;-35
2023/06/26 12:03:06;;;;;;;4.63;1.35;;;25.70;60.30;;;;;;10536772;28;20048;-31
2023/06/26 12:08:10;;;;;;;5.60;1.48;;;25.80;57.70;;;;;;10535829;28;20075;-33
2023/06/26 12:13:12;;;;;;;3.85;1.00;;;26.10;60.40;;;;;;10540970;28;20040;-33
2023/06/26 12:18:14;;;;;;;2.33;1.17;;;26.10;54.10;;;;;;10535422;28;20485;-33
2023/06/26 12:23:17;;;;;;;2.88;1.40;;;26.20;62.30;;;;;;10542690;28;20043;-32
2023/06/26 12:28:19;;;;;;;4.55;1.35;;;25.00;64.30;;;;;;10527692;28;20131;-31
2023/06/26 12:33:23;;;;;;;1.58;0.80;;;24.30;67.40;;;;;;10536821;28;20137;-32
2023/06/26 12:38:34;;;;;;;5.65;1.75;;;25.50;64.80;;;;;;10531510;28;20514;-33
2023/06/26 12:43:39;;;;;;;2.28;0.90;;;24.20;63.60;;;;;;10535093;28;20043;-32
2023/06/26 12:48:46;;;;;;;4.65;1.45;;;26.00;57.80;;;;;;10537205;28;20058;-34
2023/06/26 12:53:49;;;;;;;4.18;1.20;;;25.10;62.50;;;;;;10537057;28;20056;-31
2023/06/26 12:58:51;;;;;;;5.05;1.42;;;25.00;62.00;;;;;;10534721;28;20036;-35
2023/06/26 13:03:53;;;;;;;3.53;1.15;;;24.20;64.80;;;;;;10535529;28;20131;-31
2023/06/26 13:08:56;;;;;;;5.60;1.25;;;24.30;57.90;;;;;;10534731;28;20535;-33
2023/06/26 13:13:59;;;;;;;4.50;1.10;;;24.80;70.50;;;;;;10537031;28;20059;-31
2023/06/26 13:19:01;;;;;;;2.53;0.88;;;26.30;53.90;;;;;;10533438;28;20055;-34
2023/06/26 13:24:06;;;;;;;2.00;0.90;;;26.50;62.30;;;;;;10536237;28;20048;-36
2023/06/26 13:29:07;;;;;;;5.20;1.10;;;27.50;58.60;;;;;;10533324;28;20128;-32
2023/06/26 13:34:09;;;;;;;1.95;0.70;;;25.60;57.70;;;;;;10532959;28;20147;-33
2023/06/26 13:39:13;;;;;;;3.17;0.73;;;26.80;52.70;;;;;;10534148;28;20080;-35
2023/06/26 13:44:15;;;;;;;4.07;1.08;;;25.90;57.30;;;;;;10533376;28;20629;-35
2023/06/26 13:49:17;;;;;;;1.80;0.90;;;25.70;53.50;;;;;;10535472;28;20047;-35
2023/06/26 13:54:20;;;;;;;1.90;0.55;;;25.70;59.80;;;;;;10535195;28;20048;-33
2023/06/26 13:59:22;;;;;;;2.78;0.85;;;27.30;57.40;;;;;;10526768;28;20080;-32
2023/06/26 14:04:24;;;;;;;3.08;0.80;;;25.70;55.80;;;;;;10530261;28;20108;-33
2023/06/26 14:09:27;;;;;;;5.15;0.82;;;26.30;59.10;;;;;;10527773;28;20477;-30
2023/06/26 14:14:29;;;;;;;2.08;0.90;;;27.50;52.80;;;;;;10527720;28;20056;-35
2023/06/26 14:19:30;;;;;;;1.70;0.90;;;28.30;54.40;;;;;;10527024;28;20072;-35
2023/06/26 14:24:34;;;;;;;1.73;0.70;;;27.20;55.30;;;;;;10530992;28;20139;-35
2023/06/26 14:29:36;;;;;;;4.18;0.90;;;27.00;62.60;;;;;;10533780;28;20051;-34
2023/06/26 14:34:40;;;;;;;4.53;0.80;;;27.90;58.30;;;;;;10533760;28;20047;-32
2023/06/26 14:39:44;;;;;;;2.13;0.90;;;27.80;52.30;;;;;;10529962;28;20541;-34
2023/06/26 14:44:46;;;;;;;4.80;1.33;;;29.50;54.40;;;;;;10529199;28;20408;-36
2023/06/26 14:49:48;;;;;;;4.03;1.05;;;28.30;49.70;;;;;;10532267;28;20052;-35
2023/06/26 14:54:52;;;;;;;1.75;0.80;;;27.90;56.30;;;;;;10530616;28;20055;-26
2023/06/26 14:59:53;;;;;;;3.33;0.70;;;29.80;54.90;;;;;;10515385;28;20091;-33
2023/06/26 15:04:55;;;;;;;4.43;1.30;;;29.50;53.90;;;;;;10527242;28;20466;-38
2023/06/26 15:09:58;;;;;;;1.55;0.70;;;28.30;54.60;;;;;;10529065;28;20079;-33
2023/06/26 15:15:00;;;;;;;4.53;0.93;;;28.30;55.40;;;;;;10531179;28;20509;-33
2023/06/26 15:20:02;;;;;;;1.52;0.75;;;29.50;58.10;;;;;;10524699;28;20476;-34
2023/06/26 15:25:07;;;;;;;2.15;0.75;;;30.60;57.40;;;;;;10527178;28;20048;-33
2023/06/26 15:30:09;;;;;;;2.53;1.02;;;30.20;54.10;;;;;;10531405;28;20040;-34
2023/06/26 15:35:11;;;;;;;6.22;1.45;;;29.90;55.50;;;;;;10533312;28;20095;-33
2023/06/26 15:40:15;;;;;;;0.95;0.60;;;29.60;52.90;;;;;;10530992;28;20048;-36
2023/06/26 15:45:18;;;;;;;1.35;0.60;;;30.90;57.50;;;;;;10528975;28;20044;-32
2023/06/26 15:50:20;;;;;;;4.70;1.20;;;31.70;56.00;;;;;;10525774;28;20398;-32
2023/06/26 15:55:23;;;;;;;3.50;0.75;;;31.00;50.60;;;;;;10527650;28;20439;-34
2023/06/26 16:00:25;;;;;;;2.38;0.65;;;30.40;47.60;;;;;;10526513;28;20480;-31
2023/06/26 16:05:27;;;;;;;4.43;0.85;;;30.80;45.60;;;;;;10526901;28;20086;-36
2023/06/26 16:10:31;;;;;;;1.23;0.77;;;31.10;53.80;;;;;;10527736;28;20094;-31
2023/06/26 16:15:33;;;;;;;2.88;0.88;;;31.40;56.90;;;;;;10524875;28;20052;-33
2023/06/26 16:20:34;;;;;;;2.42;0.68;;;32.00;55.40;;;;;;10533860;28;20134;-32
2023/06/26 16:25:38;;;;;;;2.45;1.00;;;31.40;53.60;;;;;;10535768;28;20597;-34
2023/06/26 16:30:40;;;;;;;1.35;0.98;;;31.90;57.10;;;;;;10534066;28;20442;-34
2023/06/26 16:35:42;;;;;;;6.57;1.15;;;32.60;55.40;;;;;;10535525;28;20159;-33
2023/06/26 16:40:45;;;;;;;4.72;1.00;;;31.90;54.20;;;;;;10535000;28;20536;-32
2023/06/26 16:45:47;;;;;;;7.57;1.10;;;31.30;47.60;;;;;;10523630;28;20075;-34
2023/06/26 16:50:50;;;;;;;2.65;1.00;;;31.00;51.40;;;;;;10534427;28;20040;-33
2023/06/26 16:55:53;;;;;;;3.30;1.05;;;32.30;53.10;;;;;;10532198;28;20051;-30
2023/06/26 17:00:55;;;;;;;3.63;1.02;;;33.10;48.10;;;;;;10529138;28;20048;-34
2023/06/26 17:05:57;;;;;;;2.20;1.25;;;31.60;51.00;;;;;;10530187;28;20098;-34
2023/06/26 17:11:00;;;;;;;3.05;1.08;;;33.10;52.40;;;;;;10530567;28;20131;-33
2023/06/26 17:16:02;;;;;;;6.20;1.10;;;33.00;50.40;;;;;;10528850;28;20058;-34
2023/06/26 17:21:04;;;;;;;8.75;1.20;;;32.60;45.40;;;;;;10532734;28;20044;-34
2023/06/26 17:26:07;;;;;;;3.33;0.98;;;32.40;46.50;;;;;;10533224;28;20054;-31
2023/06/26 17:31:09;;;;;;;1.45;0.60;;;33.00;49.50;;;;;;10536824;28;20082;-35
2023/06/26 17:36:11;;;;;;;1.55;0.60;;;33.60;48.50;;;;;;10532609;28;20087;-35
2023/06/26 17:41:15;;;;;;;1.98;0.80;;;33.50;48.90;;;;;;10530025;28;20150;-33
2023/06/26 17:46:17;;;;;;;3.45;1.08;;;33.90;47.90;;;;;;10529337;28;20552;-32
2023/06/26 17:51:19;;;;;;;5.00;1.23;;;32.80;50.20;;;;;;10531654;28;20081;-32
2023/06/26 17:56:22;;;;;;;2.28;0.70;;;32.90;47.00;;;;;;10530858;28;20117;-32
2023/06/26 18:01:24;;;;;;;4.28;0.90;;;33.00;47.70;;;;;;10543342;28;20105;-32
2023/06/26 18:06:26;;;;;;;3.05;0.70;;;32.80;45.10;;;;;;10521829;28;20147;-36
2023/06/26 18:11:29;;;;;;;2.72;1.13;;;33.30;48.70;;;;;;10519529;28;20668;-34
2023/06/26 18:16:31;;;;;;;6.22;0.80;;;33.50;47.80;;;;;;10530077;28;20062;-33
2023/06/26 18:21:33;;;;;;;4.70;0.70;;;33.90;46.80;;;;;;10528500;28;20415;-36
2023/06/26 18:26:36;;;;;;;5.90;1.00;;;33.90;47.10;;;;;;10529601;28;20085;-34
2023/06/26 18:31:39;;;;;;;1.67;0.90;;;34.10;45.20;;;;;;10529091;28;20079;-33
2023/06/26 18:36:41;;;;;;;4.25;0.80;;;33.70;46.90;;;;;;10529905;28;20055;-35
2023/06/26 18:41:44;;;;;;;2.65;0.82;;;33.40;48.30;;;;;;10520693;28;20083;-33
2023/06/26 18:46:46;;;;;;;3.97;1.05;;;32.90;48.20;;;;;;10529173;28;20043;-33
2023/06/26 18:51:48;;;;;;;3.40;0.93;;;32.30;48.40;;;;;;10532281;28;20070;-32
2023/06/26 18:56:54;;;;;;;3.35;0.90;;;33.30;47.70;;;;;;10528615;28;20155;-33
2023/06/26 19:01:57;;;;;;;2.03;0.80;;;33.60;47.40;;;;;;10527355;28;20139;-36
2023/06/26 19:06:59;;;;;;;2.25;0.95;;;31.90;49.80;;;;;;10526982;28;20480;-32
2023/06/26 19:12:02;;;;;;;4.70;1.27;;;32.90;48.30;;;;;;10524098;28;20251;-32
2023/06/26 19:17:05;;;;;;;4.43;0.82;;;32.60;46.80;;;;;;10527395;28;20040;-35
2023/06/26 19:22:06;;;;;;;7.10;1.55;;;33.40;47.00;;;;;;10527046;28;20202;-33
2023/06/26 19:27:10;;;;;;;8.20;1.83;;;33.40;46.90;;;;;;10524014;28;20052;-32
2023/06/26 19:32:12;;;;;;;4.40;1.25;;;33.50;47.00;;;;;;10527065;28;20101;-36
2023/06/26 19:37:14;;;;;;;7.28;1.50;;;33.20;46.70;;;;;;10528369;28;20097;-37
2023/06/26 19:42:17;;;;;;;4.97;1.42;;;33.30;46.70;;;;;;10527182;28;20044;-33
2023/06/26 19:47:18;;;;;;;8.60;1.42;;;33.00;47.10;;;;;;10528980;28;20123;-33
2023/06/26 19:52:20;;;;;;;7.97;1.38;;;33.20;46.50;;;;;;10528950;28;20067;-32
2023/06/26 19:57:24;;;;;;;8.63;1.30;;;33.10;46.50;;;;;;10533154;28;20088;-37
2023/06/26 20:02:27;;;;;;;3.97;1.05;;;33.10;46.50;;;;;;10540269;28;20067;-34
2023/06/26 20:07:29;;;;;;;4.72;1.40;;;33.10;46.40;;;;;;10540876;28;20039;-37
2023/06/26 20:12:32;;;;;;;7.15;1.40;;;32.90;46.10;;;;;;10534447;28;20712;-39
2023/06/26 20:17:34;;;;;;;5.40;1.30;;;32.80;46.50;;;;;;10534964;28;20044;-34
2023/06/26 20:22:36;;;;;;;4.57;1.63;;;32.80;46.20;;;;;;10529792;28;20093;-32
2023/06/26 20:27:40;;;;;;;3.88;1.20;;;32.70;46.20;;;;;;10534601;28;20154;-33
2023/06/26 20:32:42;;;;;;;3.88;1.00;;;32.60;46.10;;;;;;10534068;28;20484;-34
2023/06/26 20:37:44;;;;;;;5.95;0.95;;;32.40;46.40;;;;;;10537231;27;20495;-34
2023/06/26 20:42:48;;;;;;;3.45;1.00;;;32.10;45.60;;;;;;10532489;28;20127;-32
2023/06/26 20:47:50;;;;;;;3.28;0.95;;;32.40;46.40;;;;;;10532787;28;20505;-33
2023/06/26 20:52:52;;;;;;;2.28;0.77;;;32.40;46.30;;;;;;10531625;28;20493;-37
2023/06/26 20:57:56;;;;;;;2.10;1.08;;;32.30;46.20;;;;;;10529338;28;20051;-39
2023/06/26 21:02:58;;;;;;;5.18;1.00;;;32.20;46.30;;;;;;10533069;28;20076;-35
2023/06/26 21:08:00;;;;;;;5.03;1.00;;;32.10;46.50;;;;;;10534969;28;20090;-35
2023/06/26 21:13:04;;;;;;;2.42;0.85;;;31.60;47.00;;;;;;10538594;28;20141;-38
2023/06/26 21:18:05;;;;;;;4.78;1.35;;;31.80;46.80;;;;;;10535671;28;20075;-33
2023/06/26 21:23:07;;;;;;;4.07;1.20;;;31.20;47.70;;;;;;10537611;28;20043;-39
2023/06/26 21:28:11;;;;;;;3.83;1.10;;;31.50;47.30;;;;;;10536509;28;20135;-33
2023/06/26 21:33:13;;;;;;;2.95;0.90;;;31.70;46.90;;;;;;10533902;28;20044;-32
2023/06/26 21:38:15;;;;;;;2.63;0.75;;;31.70;46.80;;;;;;10537226;28;20138;-32
2023/06/26 21:43:18;;;;;;;3.40;1.05;;;31.60;46.90;;;;;;10527798;28;20048;-35
2023/06/26 21:48:20;;;;;;;2.33;0.88;;;31.70;46.90;;;;;;10515678;28;20435;-32
2023/06/26 21:53:22;;;;;;;3.13;1.10;;;31.70;47.00;;;;;;10533129;28;20561;-33
2023/06/26 21:58:26;;;;;;;2.17;1.02;;;31.60;47.10;;;;;;10520938;28;20145;-36
2023/06/26 22:03:29;;;;;;;4.70;1.08;;;31.50;47.20;;;;;;10528791;28;21456;-32
2023/06/26 22:08:31;;;;;;;5.13;1.35;;;31.50;47.10;;;;;;10526014;28;20071;-35
2023/06/26 22:13:34;;;;;;;3.65;1.27;;;31.20;47.30;;;;;;10528230;28;20368;-36
2023/06/26 22:18:36;;;;;;;6.53;1.42;;;31.30;47.30;;;;;;10532346;28;20051;-33
2023/06/26 22:23:38;;;;;;;3.90;1.00;;;31.20;47.30;;;;;;10539586;28;20512;-37
2023/06/26 22:28:42;;;;;;;2.78;0.93;;;31.20;47.30;;;;;;10541162;28;20052;-31
2023/06/26 22:33:46;;;;;;;3.53;0.88;;;31.20;47.30;;;;;;10546389;28;20638;-39
2023/06/26 22:38:48;;;;;;;4.30;1.52;;;31.10;47.50;;;;;;10541035;28;20096;-32
2023/06/26 22:43:51;;;;;;;3.17;1.15;;;30.90;47.60;;;;;;10547339;28;20078;-33
2023/06/26 22:48:53;;;;;;;5.03;1.33;;;30.40;48.10;;;;;;10532818;28;20040;-33
2023/06/26 22:53:55;;;;;;;3.83;1.00;;;29.10;50.70;;;;;;10541541;28;20044;-35
2023/06/26 22:58:58;;;;;;;6.35;1.60;;;29.50;47.10;;;;;;10537247;28;20973;-31
2023/06/26 23:04:00;;;;;;;4.15;1.33;;;29.00;49.20;;;;;;10528633;28;20101;-33
2023/06/26 23:09:02;;;;;;;2.70;0.88;;;29.40;49.40;;;;;;10528649;28;20117;-32
2023/06/26 23:14:06;;;;;;;5.15;1.33;;;29.30;49.90;;;;;;10529797;28;20381;-36
2023/06/26 23:19:07;;;;;;;5.20;1.20;;;29.60;49.60;;;;;;10529077;28;20047;-33
2023/06/26 23:24:10;;;;;;;4.07;1.10;;;28.60;50.90;;;;;;10526764;28;20464;-35
2023/06/26 23:29:13;;;;;;;3.10;1.08;;;29.20;49.70;;;;;;10530524;28;20044;-35
2023/06/26 23:34:17;;;;;;;4.00;1.35;;;29.60;49.40;;;;;;10536635;28;20048;-32
2023/06/26 23:39:20;;;;;;;5.22;1.23;;;28.40;49.50;;;;;;10539105;28;20413;-41
2023/06/26 23:44:23;;;;;;;5.57;1.48;;;28.80;50.60;;;;;;10539708;28;20143;-39
2023/06/26 23:49:25;;;;;;;7.40;1.17;;;29.00;49.60;;;;;;10543183;28;20542;-32
2023/06/26 23:54:27;;;;;;;2.90;1.27;;;29.20;49.70;;;;;;10539103;28;20075;-32
2023/06/26 23:59:30;;;;;;;4.13;0.98;;;29.90;49.00;;;;;;10536699;28;20139;-33
